createdAt,value
2023-12-11T00:08:51.081Z,17.2
2023-12-11T00:18:53.851Z,17.2
2023-12-11T00:28:56.205Z,17.2
2023-12-11T00:38:58.703Z,17.2
2023-12-11T00:49:01.429Z,17.2
2023-12-11T01:09:06.461Z,17.2
2023-12-11T01:19:09.184Z,17.2
2023-12-11T01:29:11.030Z,17.2
2023-12-11T01:39:13.332Z,17.2
2023-12-11T01:49:15.973Z,17.2
2023-12-11T01:59:18.183Z,17.2
2023-12-11T02:09:20.694Z,17.1
2023-12-11T02:19:22.883Z,17.1
2023-12-11T02:29:25.056Z,17.1
2023-12-11T02:39:27.732Z,17.1
2023-12-11T02:49:29.563Z,17.1
2023-12-11T02:59:31.973Z,17.1
2023-12-11T03:09:34.019Z,17.1
2023-12-11T03:19:36.790Z,17.1
2023-12-11T03:29:38.640Z,17.1
2023-12-11T03:39:40.509Z,17.1
2023-12-11T03:59:44.837Z,17.1
2023-12-11T04:09:47.320Z,17.1
2023-12-11T04:19:49.256Z,17.1
2023-12-11T04:29:51.236Z,17
2023-12-11T04:39:53.562Z,17
2023-12-11T04:49:55.313Z,17.1
2023-12-11T05:10:00.273Z,17.1
2023-12-11T05:20:02.441Z,17.1
2023-12-11T05:30:04.312Z,17.1
2023-12-11T05:40:20.098Z,17.1
2023-12-11T05:50:08.835Z,17.1
2023-12-11T06:00:11.306Z,17.1
2023-12-11T06:10:13.437Z,17.1
2023-12-11T06:20:15.801Z,17.1
2023-12-11T06:30:18.428Z,17.1
2023-12-11T06:40:20.398Z,17.1
2023-12-11T06:50:22.771Z,17.1
2023-12-11T07:00:25.301Z,17.1
2023-12-11T07:10:27.105Z,17.1
2023-12-11T07:20:28.778Z,17.1
2023-12-11T07:30:30.986Z,17.1
2023-12-11T07:40:33.090Z,17.1
2023-12-11T07:50:34.988Z,17.1
2023-12-11T08:00:37.449Z,17.1
2023-12-11T08:10:39.967Z,17.1
2023-12-11T08:20:41.684Z,17.2
2023-12-11T08:30:44.069Z,17.2
2023-12-11T08:40:46.695Z,17.2
2023-12-11T08:50:48.712Z,17.2
2023-12-11T09:20:54.692Z,17.3
2023-12-11T09:41:00.834Z,17.3
2023-12-11T09:51:01.212Z,17.3
2023-12-11T10:01:03.894Z,17.3
2023-12-11T10:31:10.904Z,17.4
2023-12-11T10:41:14.472Z,17.5
2023-12-11T10:51:15.620Z,17.5
2023-12-11T11:01:18.124Z,17.6
2023-12-11T11:11:20.392Z,17.6
2023-12-11T11:21:22.940Z,17.7
2023-12-11T11:31:27.253Z,17.7
2023-12-11T11:41:27.396Z,17.8
2023-12-11T11:51:29.582Z,17.8
2023-12-11T12:01:31.425Z,17.7
2023-12-11T12:11:33.606Z,17.8
2023-12-11T12:21:35.353Z,17.8
2023-12-11T12:31:37.065Z,17.8
2023-12-11T12:41:39.300Z,17.8
2023-12-11T12:51:41.402Z,17.8
2023-12-11T13:11:45.359Z,17.8
2023-12-11T13:21:47.352Z,17.8
2023-12-11T13:31:49.345Z,17.8
2023-12-11T13:41:51.150Z,17.9
2023-12-11T13:51:53.181Z,17.9
2023-12-11T14:01:55.826Z,17.9
2023-12-11T14:11:57.555Z,17.9
2023-12-11T14:22:00.108Z,17.8
2023-12-11T14:32:01.996Z,17.7
2023-12-11T14:42:04.004Z,17.7
2023-12-11T14:52:06.245Z,17.6
2023-12-11T15:02:08.015Z,17.6
2023-12-11T15:12:09.831Z,17.6
2023-12-11T15:22:11.824Z,17.5
2023-12-11T15:32:13.625Z,17.5
2023-12-11T15:42:16.005Z,17.5
2023-12-11T15:52:18.000Z,17.5
2023-12-11T16:02:20.471Z,17.5
2023-12-11T16:12:22.769Z,17.4
2023-12-11T16:22:26.222Z,17.4
2023-12-11T16:32:26.825Z,17.4
2023-12-11T16:52:31.722Z,17.4
2023-12-11T18:12:55.615Z,17.4
2023-12-11T18:43:01.150Z,17.3
2023-12-11T19:03:05.808Z,17.4
2023-12-11T19:13:08.474Z,17.4
2023-12-11T19:23:10.274Z,17.4
2023-12-11T19:33:12.775Z,17.4
2023-12-11T19:43:14.991Z,17.4
2023-12-11T19:53:16.979Z,17.4
2023-12-11T20:03:19.401Z,17.4
2023-12-11T20:23:23.435Z,17.4
2023-12-11T20:33:26.050Z,17.4
2023-12-11T20:43:28.340Z,17.4
2023-12-11T21:03:32.653Z,17.4
2023-12-11T21:23:36.816Z,17.4
2023-12-11T21:33:38.592Z,17.4
2023-12-11T21:43:40.568Z,17.4
2023-12-11T21:53:42.255Z,17.4
2023-12-11T22:13:47.012Z,17.4
2023-12-11T22:23:49.349Z,17.4
2023-12-11T22:33:51.638Z,17.4
2023-12-11T22:43:54.250Z,17.4
2023-12-11T22:53:56.008Z,17.4
2023-12-11T23:03:58.544Z,17.4
2023-12-11T23:14:01.011Z,17.4
2023-12-11T23:24:03.030Z,17.4
2023-12-11T23:34:04.888Z,17.4
2023-12-11T23:44:07.208Z,17.4
